Time;durP1;ratioP1;P1;durP2;ratioP2;P2;SDS_P1;SDS_P2;PMS_P1;PMS_P2;Temp;Humidity;BMP_temperature;BMP_pressure;BME280_temperature;BME280_humidity;BME280_pressure;Samples;Min_cycle;Max_cycle;Signal;HPM_P1;HPM_P2
2022/03/31 00:01:26;;;;;;;14.83;7.73;;;7.20;99.90;;;;;;5059581;28;20198;-75
2022/03/31 00:03:51;;;;;;;11.67;7.10;;;7.30;99.90;;;;;;5058384;28;20682;-75
2022/03/31 00:06:17;;;;;;;9.83;7.40;;;7.30;99.90;;;;;;5059449;28;20174;-76
2022/03/31 00:08:42;;;;;;;14.43;6.87;;;7.20;99.90;;;;;;5058496;28;20669;-76
2022/03/31 00:11:08;;;;;;;18.67;8.27;;;7.30;99.90;;;;;;5059403;28;20225;-75
2022/03/31 00:13:34;;;;;;;12.07;7.57;;;7.20;99.90;;;;;;5059495;28;20203;-77
2022/03/31 00:15:59;;;;;;;13.83;8.07;;;7.30;99.90;;;;;;5060035;28;20161;-75
2022/03/31 00:18:27;;;;;;;12.20;6.90;;;7.20;99.90;;;;;;5059311;28;20519;-77
2022/03/31 00:20:53;;;;;;;11.03;7.13;;;7.20;99.90;;;;;;5059288;28;20526;-76
2022/03/31 00:23:19;;;;;;;13.50;7.53;;;7.20;99.90;;;;;;5059318;28;20221;-75
2022/03/31 00:25:44;;;;;;;11.53;7.53;;;7.20;99.90;;;;;;5059532;28;20587;-75
2022/03/31 00:28:10;;;;;;;13.30;7.30;;;7.20;99.90;;;;;;5059414;28;20232;-75
2022/03/31 00:30:36;;;;;;;12.83;7.53;;;7.20;99.90;;;;;;5059142;28;20280;-75
2022/03/31 00:33:02;;;;;;;13.13;7.33;;;7.20;99.90;;;;;;5059240;28;20181;-75
2022/03/31 00:35:28;;;;;;;11.43;7.37;;;7.20;99.90;;;;;;5059310;28;20170;-76
2022/03/31 00:37:54;;;;;;;13.17;7.50;;;7.20;99.90;;;;;;5059236;28;20650;-76
2022/03/31 00:40:21;;;;;;;15.23;7.87;;;7.20;99.90;;;;;;5059101;28;20266;-76
2022/03/31 00:42:49;;;;;;;14.43;7.57;;;7.20;99.90;;;;;;5059215;28;20233;-75
2022/03/31 00:45:28;;;;;;;13.83;7.47;;;7.10;99.90;;;;;;5055264;28;20202;-75
2022/03/31 00:47:55;;;;;;;16.23;7.53;;;7.10;99.90;;;;;;5056094;28;20682;-75
2022/03/31 00:50:26;;;;;;;12.50;7.53;;;7.10;99.90;;;;;;5054542;28;20205;-75
2022/03/31 00:52:52;;;;;;;12.87;7.13;;;7.10;99.90;;;;;;5054653;28;20168;-75
2022/03/31 00:55:19;;;;;;;11.53;7.20;;;7.10;99.90;;;;;;5055898;28;20200;-77
2022/03/31 00:57:46;;;;;;;11.63;7.37;;;7.10;1.00;;;;;;5054489;28;20207;-74
2022/03/31 01:00:17;;;;;;;13.97;7.27;;;7.10;99.90;;;;;;5055645;28;20204;-76
2022/03/31 01:02:44;;;;;;;10.77;7.87;;;7.10;99.90;;;;;;5056022;28;20160;-74
2022/03/31 01:05:11;;;;;;;16.17;7.97;;;7.10;99.90;;;;;;5054206;28;20294;-75
2022/03/31 01:07:37;;;;;;;12.13;6.57;;;7.10;99.90;;;;;;5055627;28;20178;-75
2022/03/31 01:10:05;;;;;;;15.17;7.30;;;7.10;1.00;;;;;;5055521;28;20176;-75
2022/03/31 01:12:31;;;;;;;15.60;6.90;;;7.00;1.00;;;;;;5054156;28;20210;-74
2022/03/31 01:15:18;;;;;;;11.43;7.50;;;7.00;1.00;;;;;;5054227;28;20227;-75
2022/03/31 01:17:46;;;;;;;12.60;7.33;;;7.00;99.90;;;;;;5055645;28;20174;-74
2022/03/31 01:20:21;;;;;;;12.67;7.53;;;7.00;99.90;;;;;;5055476;28;20185;-75
2022/03/31 01:22:51;;;;;;;12.03;7.60;;;7.00;99.90;;;;;;5055289;28;20243;-74
2022/03/31 01:25:17;;;;;;;11.60;7.77;;;7.00;1.00;;;;;;5055146;28;20670;-75
2022/03/31 01:27:45;;;;;;;13.00;7.50;;;7.00;99.90;;;;;;5055151;28;20221;-73
2022/03/31 01:30:13;;;;;;;19.00;7.57;;;7.00;99.90;;;;;;5055404;28;20648;-75
2022/03/31 01:32:40;;;;;;;10.37;7.40;;;7.00;1.00;;;;;;5054963;28;20696;-75
2022/03/31 01:35:07;;;;;;;13.80;7.37;;;7.00;1.00;;;;;;5053874;28;20227;-74
2022/03/31 01:37:32;;;;;;;14.37;7.80;;;7.00;1.00;;;;;;5055078;28;20171;-75
2022/03/31 01:39:59;;;;;;;15.23;7.80;;;7.00;1.00;;;;;;5054909;28;20174;-75
2022/03/31 01:42:26;;;;;;;10.10;7.27;;;7.00;1.00;;;;;;5053609;28;20657;-75
2022/03/31 01:44:52;;;;;;;11.87;6.77;;;7.00;1.00;;;;;;5055064;28;20205;-75
2022/03/31 01:47:17;;;;;;;12.87;7.80;;;7.00;1.00;;;;;;5053517;28;20183;-76
2022/03/31 01:49:43;;;;;;;11.17;7.07;;;7.00;23.10;;;;;;5054864;28;20214;-74
2022/03/31 01:52:09;;;;;;;13.17;7.37;;;6.90;99.90;;;;;;5054602;28;20202;-75
2022/03/31 01:54:35;;;;;;;16.00;8.00;;;6.90;99.90;;;;;;5054663;28;20197;-75
2022/03/31 01:57:01;;;;;;;15.27;8.30;;;6.90;99.90;;;;;;5053401;28;20203;-75
2022/03/31 01:59:34;;;;;;;14.87;7.63;;;6.90;99.90;;;;;;5054592;28;20202;-75
2022/03/31 02:02:00;;;;;;;17.73;7.83;;;6.90;99.90;;;;;;5053244;28;20260;-75
2022/03/31 02:04:26;;;;;;;13.33;7.87;;;6.80;1.00;;;;;;5053506;28;20294;-76
2022/03/31 02:06:51;;;;;;;11.67;7.47;;;6.80;1.00;;;;;;5054723;28;20184;-77
2022/03/31 02:09:17;;;;;;;12.30;8.70;;;6.90;1.00;;;;;;5054686;28;20196;-76
2022/03/31 02:11:45;;;;;;;20.00;8.10;;;6.80;1.00;;;;;;5054477;28;20206;-75
2022/03/31 02:14:13;;;;;;;14.47;8.80;;;6.80;1.00;;;;;;5052839;28;20263;-75
2022/03/31 02:16:38;;;;;;;15.40;8.20;;;6.80;1.00;;;;;;5053015;28;20182;-75
2022/03/31 02:19:04;;;;;;;12.03;7.90;;;6.80;1.00;;;;;;5054266;28;20167;-75
2022/03/31 02:21:29;;;;;;;12.20;8.70;;;6.80;1.00;;;;;;5054123;28;20181;-75
2022/03/31 02:23:55;;;;;;;15.03;9.27;;;6.80;1.00;;;;;;5052833;28;20670;-75
2022/03/31 02:26:21;;;;;;;10.03;8.27;;;6.70;3.60;;;;;;5052888;28;20646;-75
2022/03/31 02:28:46;;;;;;;14.23;8.20;;;6.70;99.90;;;;;;5054232;28;20261;-75
2022/03/31 02:31:12;;;;;;;13.87;8.77;;;6.70;99.90;;;;;;5052768;28;20279;-76
2022/03/31 02:33:38;;;;;;;12.57;8.53;;;6.70;99.90;;;;;;5052610;28;20680;-74
2022/03/31 02:36:05;;;;;;;17.20;8.50;;;6.70;99.90;;;;;;5054074;28;20164;-76
2022/03/31 02:38:31;;;;;;;15.10;9.00;;;6.70;99.90;;;;;;5052559;28;20546;-74
2022/03/31 02:40:56;;;;;;;17.50;8.33;;;6.70;99.90;;;;;;5053748;28;20252;-75
2022/03/31 02:43:22;;;;;;;14.63;8.67;;;6.70;99.90;;;;;;5052486;28;20663;-76
2022/03/31 02:45:47;;;;;;;12.40;8.17;;;6.70;99.90;;;;;;5053034;28;20612;-75
2022/03/31 02:48:13;;;;;;;13.80;8.13;;;6.70;99.90;;;;;;5053733;28;20262;-75
2022/03/31 02:50:38;;;;;;;13.20;9.23;;;6.70;1.00;;;;;;5053606;28;20257;-75
2022/03/31 02:55:48;;;;;;;14.30;9.13;;;6.70;1.00;;;;;;5053932;28;20247;-75
2022/03/31 02:58:14;;;;;;;15.63;8.43;;;6.70;99.90;;;;;;5052245;28;20202;-75
2022/03/31 03:00:39;;;;;;;13.90;9.00;;;6.70;99.90;;;;;;5053767;28;20262;-75
2022/03/31 03:03:06;;;;;;;12.37;8.57;;;6.70;1.00;;;;;;5053402;28;20205;-75
2022/03/31 03:05:32;;;;;;;14.80;8.67;;;6.70;1.00;;;;;;5052083;28;20181;-74
2022/03/31 03:07:58;;;;;;;15.83;9.27;;;6.70;1.00;;;;;;5053257;28;20167;-75
2022/03/31 03:10:23;;;;;;;14.37;9.30;;;6.70;1.00;;;;;;5053273;28;20171;-75
2022/03/31 03:12:52;;;;;;;17.87;9.43;;;6.70;25.10;;;;;;5053278;28;20193;-75
2022/03/31 03:15:18;;;;;;;15.73;9.27;;;6.70;99.90;;;;;;5053122;28;20701;-75
2022/03/31 03:17:45;;;;;;;13.67;9.67;;;6.70;99.90;;;;;;5053424;28;20649;-74
2022/03/31 03:20:15;;;;;;;12.57;9.10;;;6.60;1.00;;;;;;5053236;28;20179;-75
2022/03/31 03:22:46;;;;;;;13.57;9.37;;;6.60;1.00;;;;;;5053450;28;20545;-74
2022/03/31 03:25:13;;;;;;;18.97;9.70;;;6.60;99.90;;;;;;5053095;28;20716;-76
2022/03/31 03:27:39;;;;;;;12.20;9.40;;;6.60;99.90;;;;;;5051764;28;20198;-75
2022/03/31 03:30:06;;;;;;;20.27;11.10;;;6.60;1.00;;;;;;5053142;28;20179;-75
2022/03/31 03:32:32;;;;;;;14.60;10.23;;;6.60;1.00;;;;;;5053073;28;20206;-75
2022/03/31 03:34:57;;;;;;;20.90;9.80;;;6.60;1.00;;;;;;5053252;28;20245;-75
2022/03/31 03:37:23;;;;;;;16.67;9.83;;;6.60;46.30;;;;;;5051773;28;20175;-74
2022/03/31 03:39:49;;;;;;;18.50;10.60;;;6.50;1.00;;;;;;5053106;28;20169;-75
2022/03/31 03:42:15;;;;;;;15.73;10.70;;;6.50;1.00;;;;;;5053200;28;20184;-75
2022/03/31 03:44:40;;;;;;;18.40;10.30;;;6.60;99.90;;;;;;5051551;28;20328;-75
2022/03/31 03:47:06;;;;;;;16.67;10.70;;;6.50;1.00;;;;;;5053621;28;20719;-75
2022/03/31 03:49:33;;;;;;;13.10;9.63;;;6.50;99.90;;;;;;5051756;28;20221;-75
2022/03/31 03:51:58;;;;;;;17.43;11.10;;;6.50;99.90;;;;;;5051559;28;20199;-75
2022/03/31 03:54:24;;;;;;;19.77;9.97;;;6.50;99.90;;;;;;5052786;28;20198;-75
2022/03/31 03:56:50;;;;;;;18.93;11.40;;;6.50;1.00;;;;;;5052909;28;20175;-75
2022/03/31 03:59:15;;;;;;;18.47;9.93;;;6.50;1.00;;;;;;5051569;28;20178;-75
2022/03/31 04:01:41;;;;;;;19.50;11.33;;;6.50;1.00;;;;;;5052695;28;20171;-75
2022/03/31 04:04:06;;;;;;;16.17;11.43;;;6.50;1.00;;;;;;5052647;28;20225;-76
2022/03/31 04:06:32;;;;;;;16.57;11.70;;;6.50;1.00;;;;;;5052776;28;20180;-75
2022/03/31 04:08:57;;;;;;;16.27;10.30;;;6.50;1.00;;;;;;5052877;28;20175;-74
2022/03/31 04:11:23;;;;;;;17.80;11.20;;;6.50;7.80;;;;;;5051390;28;20203;-75
2022/03/31 04:16:16;;;;;;;16.83;10.90;;;6.50;99.90;;;;;;5052755;28;20216;-76
2022/03/31 04:18:42;;;;;;;17.33;11.60;;;6.50;99.90;;;;;;5052920;28;20678;-77
2022/03/31 04:21:07;;;;;;;16.13;12.10;;;6.50;99.90;;;;;;5056275;28;20181;-77
2022/03/31 04:23:33;;;;;;;18.20;13.10;;;6.50;99.90;;;;;;5056556;28;20175;-77
2022/03/31 04:25:59;;;;;;;18.60;12.53;;;6.40;99.90;;;;;;5057506;28;20198;-76
2022/03/31 04:28:24;;;;;;;16.93;12.13;;;6.50;99.90;;;;;;5057912;28;20197;-77
2022/03/31 04:30:50;;;;;;;18.87;13.07;;;6.40;99.90;;;;;;5056471;28;20203;-77
2022/03/31 04:33:15;;;;;;;30.70;13.03;;;6.40;99.90;;;;;;5057953;28;20167;-78
2022/03/31 04:35:41;;;;;;;19.77;12.83;;;6.40;99.90;;;;;;5057438;28;20674;-76
2022/03/31 04:38:06;;;;;;;18.63;12.60;;;6.40;99.90;;;;;;5057149;28;20203;-77
2022/03/31 04:40:32;;;;;;;18.80;12.93;;;6.40;99.90;;;;;;5057456;28;20254;-77
2022/03/31 04:42:58;;;;;;;17.50;14.70;;;6.40;99.90;;;;;;5058283;28;20176;-77
2022/03/31 04:45:23;;;;;;;22.57;14.30;;;6.40;99.90;;;;;;5055959;28;20642;-77
2022/03/31 04:47:49;;;;;;;19.03;12.73;;;6.30;99.90;;;;;;5057105;28;20203;-77
2022/03/31 04:50:15;;;;;;;17.77;13.30;;;6.30;99.90;;;;;;5057521;28;20627;-78
2022/03/31 04:52:42;;;;;;;19.80;13.70;;;6.30;99.90;;;;;;5058463;28;20679;-77
2022/03/31 04:55:08;;;;;;;19.07;13.77;;;6.30;99.90;;;;;;5057157;28;20180;-77
2022/03/31 04:57:34;;;;;;;19.50;13.73;;;6.30;99.90;;;;;;5058019;28;20179;-77
2022/03/31 04:59:59;;;;;;;19.43;14.20;;;6.30;99.90;;;;;;5064115;28;20541;-77
2022/03/31 05:02:25;;;;;;;18.93;14.70;;;6.30;99.90;;;;;;5069246;28;20171;-77
2022/03/31 05:04:51;;;;;;;19.33;13.73;;;6.30;99.90;;;;;;5059557;28;20211;-77
2022/03/31 05:07:17;;;;;;;21.37;13.73;;;6.20;99.90;;;;;;5056508;28;20226;-77
2022/03/31 05:09:44;;;;;;;22.77;15.60;;;6.20;99.90;;;;;;5055495;28;20176;-76
2022/03/31 05:12:12;;;;;;;24.30;15.60;;;6.20;99.90;;;;;;5055234;28;20203;-78
2022/03/31 05:14:38;;;;;;;20.57;14.43;;;6.20;99.90;;;;;;5055917;28;20215;-78
2022/03/31 05:17:05;;;;;;;21.27;15.23;;;6.20;99.90;;;;;;5057438;28;20594;-79
2022/03/31 05:19:31;;;;;;;21.70;15.20;;;6.20;99.90;;;;;;5055376;28;20180;-77
2022/03/31 05:21:56;;;;;;;21.77;14.77;;;6.20;99.90;;;;;;5056255;28;20209;-77
2022/03/31 05:24:22;;;;;;;27.40;15.83;;;6.20;99.90;;;;;;5057459;28;20261;-79
2022/03/31 05:26:48;;;;;;;25.27;16.00;;;6.20;99.90;;;;;;5056803;28;20221;-78
2022/03/31 05:29:13;;;;;;;25.50;16.30;;;6.20;99.90;;;;;;5058825;28;20658;-79
2022/03/31 05:31:40;;;;;;;25.13;14.33;;;6.30;99.90;;;;;;5058077;28;20199;-79
2022/03/31 05:34:05;;;;;;;23.10;15.63;;;6.30;99.90;;;;;;5057739;28;20202;-79
2022/03/31 05:36:31;;;;;;;28.13;15.97;;;6.30;99.90;;;;;;5056542;28;20183;-78
2022/03/31 05:38:56;;;;;;;23.67;15.13;;;6.30;99.90;;;;;;5057761;28;20242;-77
2022/03/31 05:41:24;;;;;;;19.33;14.77;;;6.30;99.90;;;;;;5056102;28;20246;-79
2022/03/31 05:43:49;;;;;;;19.37;14.50;;;6.30;99.90;;;;;;5057745;28;20635;-78
2022/03/31 05:46:15;;;;;;;20.43;15.00;;;6.30;99.90;;;;;;5057050;28;20183;-79
2022/03/31 05:48:40;;;;;;;21.20;14.33;;;6.30;99.90;;;;;;5057000;28;20218;-79
2022/03/31 05:51:07;;;;;;;23.17;15.07;;;6.30;99.90;;;;;;5058645;28;20642;-79
2022/03/31 05:53:33;;;;;;;21.77;15.03;;;6.30;99.90;;;;;;5059626;28;20172;-79
2022/03/31 05:55:59;;;;;;;25.20;15.23;;;6.30;99.90;;;;;;5060890;28;20187;-77
2022/03/31 05:58:24;;;;;;;23.73;14.43;;;6.40;99.90;;;;;;5065111;28;20182;-77
2022/03/31 06:00:53;;;;;;;22.70;15.60;;;6.30;99.90;;;;;;5063888;28;20198;-79
2022/03/31 06:03:22;;;;;;;25.77;15.50;;;6.30;99.90;;;;;;5057520;28;20593;-79
2022/03/31 06:05:48;;;;;;;25.03;14.30;;;6.30;99.90;;;;;;5056990;28;20199;-79
2022/03/31 06:08:15;;;;;;;21.07;14.87;;;6.40;99.90;;;;;;5056804;28;20183;-79
2022/03/31 06:10:41;;;;;;;25.07;15.93;;;6.40;99.90;;;;;;5056017;28;20225;-79
2022/03/31 06:13:06;;;;;;;25.60;15.63;;;6.40;99.90;;;;;;5057026;28;20656;-79
2022/03/31 06:15:34;;;;;;;25.83;15.83;;;6.40;99.90;;;;;;5056714;28;20219;-79
2022/03/31 06:18:00;;;;;;;23.53;14.47;;;6.40;99.90;;;;;;5057196;28;20245;-79
2022/03/31 06:20:27;;;;;;;22.73;15.07;;;6.50;99.90;;;;;;5055955;28;20589;-79
2022/03/31 06:22:53;;;;;;;21.00;15.03;;;6.50;99.90;;;;;;5056933;28;20186;-79
2022/03/31 06:25:20;;;;;;;24.40;14.83;;;6.50;99.90;;;;;;5056870;28;20749;-79
2022/03/31 06:27:47;;;;;;;20.60;14.60;;;6.50;99.90;;;;;;5057285;28;20175;-79
2022/03/31 06:30:13;;;;;;;24.70;15.93;;;6.50;99.90;;;;;;5056035;28;20182;-80
2022/03/31 06:32:38;;;;;;;26.03;16.87;;;6.50;99.90;;;;;;5049441;28;20290;-78
2022/03/31 06:35:04;;;;;;;21.50;15.63;;;6.50;99.90;;;;;;5050952;28;20237;-79
2022/03/31 06:37:30;;;;;;;24.33;16.93;;;6.50;99.90;;;;;;5054958;28;20542;-77
2022/03/31 06:39:56;;;;;;;23.03;15.83;;;6.50;99.90;;;;;;5055865;28;20212;-77
2022/03/31 06:42:21;;;;;;;20.90;15.83;;;6.60;99.90;;;;;;5055368;28;20686;-78
2022/03/31 06:44:47;;;;;;;29.10;18.60;;;6.60;99.90;;;;;;5044983;28;20244;-78
2022/03/31 06:47:12;;;;;;;25.83;17.93;;;6.60;99.90;;;;;;5062171;28;20176;-78
2022/03/31 06:49:38;;;;;;;29.57;19.63;;;6.70;99.90;;;;;;5065877;28;20185;-77
2022/03/31 06:52:04;;;;;;;30.33;20.40;;;6.60;99.90;;;;;;5058157;28;20290;-78
2022/03/31 06:54:31;;;;;;;24.63;18.63;;;6.70;99.90;;;;;;5057331;28;20219;-78
2022/03/31 06:56:57;;;;;;;26.87;18.17;;;6.70;99.90;;;;;;5055784;28;20186;-77
2022/03/31 06:59:22;;;;;;;27.13;18.13;;;6.70;99.90;;;;;;5055500;28;20646;-78
2022/03/31 07:01:48;;;;;;;24.67;18.23;;;6.80;99.90;;;;;;5057245;28;20171;-77
2022/03/31 07:04:17;;;;;;;29.27;18.43;;;6.80;99.90;;;;;;5055809;28;20204;-77
2022/03/31 07:06:43;;;;;;;21.87;17.60;;;6.80;99.90;;;;;;5055340;28;20186;-77
2022/03/31 07:09:08;;;;;;;25.97;17.70;;;6.80;99.90;;;;;;5055938;28;20199;-78
2022/03/31 07:11:34;;;;;;;26.23;19.53;;;6.80;99.90;;;;;;5056130;28;20512;-77
2022/03/31 07:14:05;;;;;;;26.67;17.70;;;6.80;99.90;;;;;;5053850;28;20193;-78
2022/03/31 07:16:31;;;;;;;25.47;18.50;;;6.90;99.90;;;;;;5056237;28;20163;-77
2022/03/31 07:18:58;;;;;;;28.80;18.80;;;6.90;99.90;;;;;;5056225;28;20178;-77
2022/03/31 07:21:24;;;;;;;24.60;17.50;;;6.90;99.90;;;;;;5055701;28;20193;-78
2022/03/31 07:23:53;;;;;;;29.73;18.97;;;6.90;99.90;;;;;;5056118;28;20182;-78
2022/03/31 07:26:20;;;;;;;28.80;17.90;;;6.90;99.90;;;;;;5056905;28;20209;-78
2022/03/31 07:28:46;;;;;;;27.57;18.27;;;6.90;99.90;;;;;;5057394;28;20179;-78
2022/03/31 07:31:12;;;;;;;28.20;18.23;;;7.00;99.90;;;;;;5056882;28;20232;-78
2022/03/31 07:33:38;;;;;;;24.17;16.70;;;7.00;99.90;;;;;;5054958;28;20179;-78
2022/03/31 07:36:04;;;;;;;27.63;17.37;;;7.00;99.90;;;;;;5053016;28;20207;-77
2022/03/31 07:38:30;;;;;;;25.20;16.93;;;7.00;99.90;;;;;;5054236;28;20658;-77
2022/03/31 07:40:56;;;;;;;25.47;17.43;;;7.00;99.90;;;;;;5052472;28;20176;-77
2022/03/31 07:43:22;;;;;;;26.40;16.47;;;7.10;99.90;;;;;;5052214;28;20604;-78
2022/03/31 07:45:47;;;;;;;24.90;16.73;;;7.10;99.90;;;;;;5053248;28;20277;-77
2022/03/31 07:48:15;;;;;;;22.57;15.67;;;7.10;99.90;;;;;;5053582;28;20175;-77
2022/03/31 07:50:41;;;;;;;23.23;16.60;;;7.10;99.90;;;;;;5053481;28;20171;-77
2022/03/31 07:53:08;;;;;;;22.77;15.87;;;7.10;99.90;;;;;;5053254;28;20203;-78
2022/03/31 07:55:34;;;;;;;23.37;16.00;;;7.10;99.90;;;;;;5055724;28;20679;-77
2022/03/31 07:57:59;;;;;;;22.17;15.33;;;7.20;99.90;;;;;;5057535;28;20224;-77
2022/03/31 08:00:25;;;;;;;25.50;16.33;;;7.10;99.90;;;;;;5056103;28;20236;-77
2022/03/31 08:02:52;;;;;;;29.60;16.50;;;7.20;99.90;;;;;;5057048;28;20187;-77
2022/03/31 08:05:23;;;;;;;27.37;16.30;;;7.30;99.90;;;;;;5057451;28;20261;-77
2022/03/31 08:07:50;;;;;;;24.30;15.77;;;7.20;99.90;;;;;;5056037;28;20655;-77
2022/03/31 08:10:16;;;;;;;23.77;15.50;;;7.30;99.90;;;;;;5057021;28;20176;-77
2022/03/31 08:12:44;;;;;;;21.50;15.70;;;7.30;99.90;;;;;;5057211;28;20199;-77
2022/03/31 08:15:10;;;;;;;24.50;15.27;;;7.30;99.90;;;;;;5056703;28;20215;-77
2022/03/31 08:17:38;;;;;;;25.67;15.83;;;7.30;99.90;;;;;;5055952;28;20176;-77
2022/03/31 08:20:11;;;;;;;25.83;16.17;;;7.20;99.90;;;;;;5057666;28;20635;-78
2022/03/31 08:22:38;;;;;;;21.30;15.20;;;7.20;99.90;;;;;;5058250;28;20635;-78
2022/03/31 08:25:05;;;;;;;23.90;15.37;;;7.30;99.90;;;;;;5059242;28;20191;-78
2022/03/31 08:27:32;;;;;;;24.33;16.03;;;7.30;99.90;;;;;;5060095;28;20189;-78
2022/03/31 08:29:57;;;;;;;24.27;15.47;;;7.30;99.90;;;;;;5060211;28;20249;-77
2022/03/31 08:32:23;;;;;;;24.83;15.23;;;7.40;99.90;;;;;;5059071;28;20577;-78
2022/03/31 08:34:49;;;;;;;25.70;16.57;;;7.40;99.90;;;;;;5061124;28;20741;-78
2022/03/31 08:37:14;;;;;;;24.40;15.63;;;7.40;99.90;;;;;;5068488;28;20172;-77
2022/03/31 08:39:40;;;;;;;25.87;16.37;;;7.50;99.90;;;;;;5056085;28;20734;-77
2022/03/31 08:42:09;;;;;;;23.17;15.80;;;7.50;99.90;;;;;;5057394;28;20171;-78
2022/03/31 08:44:36;;;;;;;26.33;15.87;;;7.50;99.90;;;;;;5057033;28;20183;-77
2022/03/31 08:47:02;;;;;;;20.00;15.43;;;7.50;99.90;;;;;;5057032;28;20183;-77
2022/03/31 08:49:29;;;;;;;25.17;15.87;;;7.50;99.90;;;;;;5056536;28;20648;-77
2022/03/31 08:51:55;;;;;;;23.13;15.73;;;7.60;99.90;;;;;;5056556;28;20210;-77
2022/03/31 08:54:21;;;;;;;24.40;15.87;;;7.60;99.90;;;;;;5057837;28;20642;-77
2022/03/31 08:56:47;;;;;;;26.63;15.73;;;7.60;99.90;;;;;;5058779;28;20229;-77
2022/03/31 08:59:12;;;;;;;24.73;15.33;;;7.70;99.90;;;;;;5057590;28;20522;-78
2022/03/31 09:01:39;;;;;;;26.70;16.93;;;7.70;99.90;;;;;;5059224;28;20679;-77
2022/03/31 09:04:25;;;;;;;22.83;16.20;;;7.70;99.90;;;;;;5059991;28;20210;-75
2022/03/31 09:07:01;;;;;;;20.37;14.57;;;7.70;99.90;;;;;;5059660;28;20187;-76
2022/03/31 09:09:27;;;;;;;22.40;15.47;;;7.70;99.90;;;;;;5055117;28;20191;-77
2022/03/31 09:11:53;;;;;;;24.80;15.63;;;7.70;99.90;;;;;;5056109;28;20188;-77
2022/03/31 09:14:31;;;;;;;22.93;16.80;;;7.70;99.90;;;;;;5054703;28;20207;-77
2022/03/31 09:16:57;;;;;;;24.30;16.43;;;7.70;99.90;;;;;;5055432;28;20171;-77
2022/03/31 09:19:24;;;;;;;19.97;15.13;;;7.70;99.90;;;;;;5055514;28;20209;-77
2022/03/31 09:21:54;;;;;;;23.00;14.97;;;7.70;99.90;;;;;;5055474;28;20174;-77
2022/03/31 09:24:26;;;;;;;22.47;15.87;;;7.70;99.90;;;;;;5054037;28;20249;-77
2022/03/31 09:26:52;;;;;;;23.60;15.33;;;7.80;99.90;;;;;;5054544;28;20183;-76
2022/03/31 09:29:20;;;;;;;23.30;14.97;;;7.80;99.90;;;;;;5057363;28;20171;-77
2022/03/31 09:31:47;;;;;;;21.43;15.07;;;7.80;99.90;;;;;;5054781;28;20196;-76
2022/03/31 09:34:13;;;;;;;19.60;14.77;;;7.80;99.90;;;;;;5055963;28;20244;-77
2022/03/31 09:36:43;;;;;;;22.00;14.90;;;7.70;99.90;;;;;;5056292;28;20203;-77
2022/03/31 09:39:13;;;;;;;24.03;15.77;;;7.80;99.90;;;;;;5056026;28;20173;-77
2022/03/31 09:41:41;;;;;;;22.73;14.33;;;7.80;99.90;;;;;;5055222;28;20535;-77
2022/03/31 09:44:22;;;;;;;23.63;15.10;;;7.80;99.90;;;;;;5053994;28;20630;-77
2022/03/31 09:46:49;;;;;;;19.23;14.37;;;7.70;99.90;;;;;;5055270;28;20160;-77
2022/03/31 09:49:19;;;;;;;20.77;14.37;;;7.70;99.90;;;;;;5055313;28;20206;-77
2022/03/31 09:51:46;;;;;;;20.47;13.90;;;7.70;99.90;;;;;;5053678;28;20194;-77
2022/03/31 09:54:12;;;;;;;20.07;14.57;;;7.70;99.90;;;;;;5054444;28;20766;-77
2022/03/31 09:56:39;;;;;;;23.70;14.80;;;7.70;99.90;;;;;;5053881;28;20220;-77
2022/03/31 09:59:08;;;;;;;20.27;14.40;;;7.60;99.90;;;;;;5053886;28;20172;-78
2022/03/31 10:01:36;;;;;;;20.77;14.37;;;7.60;99.90;;;;;;5054047;28;20206;-77
2022/03/31 10:04:02;;;;;;;20.83;14.50;;;7.50;99.90;;;;;;5054266;28;20184;-77
2022/03/31 10:06:28;;;;;;;23.20;14.03;;;7.50;99.90;;;;;;5054455;28;20221;-76
2022/03/31 10:08:57;;;;;;;23.47;13.60;;;7.50;99.90;;;;;;5055744;28;20181;-77
2022/03/31 10:11:24;;;;;;;22.10;14.23;;;7.50;99.90;;;;;;5055066;28;20206;-77
2022/03/31 10:13:52;;;;;;;22.83;14.33;;;7.50;99.90;;;;;;5055646;28;20171;-78
2022/03/31 10:16:38;;;;;;;18.90;14.43;;;7.50;99.90;;;;;;5070256;22;20203;-96
2022/03/31 10:19:06;;;;;;;24.93;14.27;;;7.70;99.90;;;;;;5079588;28;20147;-96
2022/03/31 10:21:40;;;;;;;20.97;13.70;;;7.50;99.90;;;;;;5081019;28;20165;-96
2022/03/31 10:24:54;;;;;;;;;;;;;;;;;;;;;
2022/03/31 10:31:41;;;;;;;19.60;13.03;;;7.50;99.90;;;;;;5062342;28;20159;-96
2022/03/31 10:34:11;;;;;;;18.53;12.83;;;7.70;99.90;;;;;;5060374;28;20143;-96
2022/03/31 10:36:47;;;;;;;18.13;13.17;;;7.30;99.90;;;;;;5060083;28;20216;-96
2022/03/31 10:39:21;;;;;;;21.27;13.90;;;7.30;99.90;;;;;;5060272;28;20143;-96
2022/03/31 10:41:59;;;;;;;21.90;13.90;;;7.40;99.90;;;;;;5060672;28;20135;-96
2022/03/31 10:44:25;;;;;;;22.23;14.03;;;7.50;99.90;;;;;;5060242;28;20136;-96
2022/03/31 10:47:10;;;;;;;22.67;14.57;;;7.40;99.90;;;;;;5060135;28;20159;-96
2022/03/31 10:49:39;;;;;;;24.50;14.80;;;7.50;99.90;;;;;;5060123;28;20140;-96
2022/03/31 10:52:19;;;;;;;21.90;15.27;;;7.50;99.90;;;;;;5059832;28;20187;-96
2022/03/31 10:54:48;;;;;;;23.07;15.57;;;7.50;99.90;;;;;;5060030;28;20136;-95
2022/03/31 10:57:17;;;;;;;21.53;14.47;;;7.70;99.90;;;;;;5059946;28;20211;-96
2022/03/31 10:59:49;;;;;;;21.80;14.33;;;7.50;99.90;;;;;;5059904;28;20140;-96
2022/03/31 11:02:19;;;;;;;24.57;15.70;;;7.70;99.90;;;;;;5059875;28;20151;-96
2022/03/31 11:04:53;;;;;;;23.57;15.73;;;7.50;99.90;;;;;;5059891;28;20143;-95
2022/03/31 11:07:24;;;;;;;22.73;14.87;;;7.50;99.90;;;;;;5060343;28;20140;-96
2022/03/31 11:10:02;;;;;;;22.17;15.60;;;7.50;99.90;;;;;;5059800;28;20167;-96
